Time;durP1;ratioP1;P1;durP2;ratioP2;P2;SDS_P1;SDS_P2;PMS_P1;PMS_P2;Temp;Humidity;BMP_temperature;BMP_pressure;BME280_temperature;BME280_humidity;BME280_pressure;Samples;Min_cycle;Max_cycle;Signal;HPM_P1;HPM_P2
2022/12/04 00:01:46;;;;;;;47.42;22.10;;;2.60;81.00;;;;;;5073801;28;20387;-33
2022/12/04 00:04:12;;;;;;;44.05;21.27;;;2.60;80.90;;;;;;5073436;28;20362;-32
2022/12/04 00:06:38;;;;;;;44.72;20.33;;;2.50;80.90;;;;;;5073558;28;20155;-33
2022/12/04 00:09:04;;;;;;;44.53;19.40;;;2.60;81.10;;;;;;5055408;28;20032;-33
2022/12/04 00:11:31;;;;;;;45.90;20.88;;;2.60;81.10;;;;;;5073643;28;20464;-33
2022/12/04 00:13:57;;;;;;;40.17;19.75;;;2.60;81.00;;;;;;5073327;28;20492;-33
2022/12/04 00:16:25;;;;;;;43.28;20.23;;;2.60;80.90;;;;;;5073274;28;20025;-32
2022/12/04 00:18:51;;;;;;;51.63;23.20;;;2.60;80.90;;;;;;5073503;28;20025;-33
2022/12/04 00:21:17;;;;;;;44.28;20.92;;;2.60;80.90;;;;;;5073087;28;20043;-33
2022/12/04 00:23:44;;;;;;;47.15;22.05;;;2.50;80.90;;;;;;5055263;28;20374;-32
2022/12/04 00:26:13;;;;;;;52.95;22.85;;;2.60;81.00;;;;;;5073208;28;20482;-33
2022/12/04 00:28:39;;;;;;;45.67;21.67;;;2.50;80.90;;;;;;5073033;28;20487;-34
2022/12/04 00:31:10;;;;;;;45.95;22.02;;;2.50;80.90;;;;;;5072847;28;20032;-34
2022/12/04 00:33:36;;;;;;;44.83;21.92;;;2.50;80.80;;;;;;5073370;28;20428;-34
2022/12/04 00:36:05;;;;;;;44.20;21.58;;;2.50;80.90;;;;;;5072843;28;20036;-33
2022/12/04 00:38:31;;;;;;;42.83;20.38;;;2.50;80.90;;;;;;5072933;28;20135;-33
2022/12/04 00:40:56;;;;;;;46.58;22.85;;;2.50;80.80;;;;;;5072460;28;20454;-33
2022/12/04 00:43:23;;;;;;;50.13;23.25;;;2.50;80.70;;;;;;5072605;28;20098;-34
2022/12/04 00:45:49;;;;;;;50.53;23.15;;;2.50;80.80;;;;;;5072924;28;20055;-33
2022/12/04 00:48:15;;;;;;;50.67;23.42;;;2.50;80.80;;;;;;5072481;28;20017;-33
2022/12/04 00:50:40;;;;;;;52.10;24.55;;;2.50;80.70;;;;;;5072089;28;20357;-34
2022/12/04 00:53:06;;;;;;;49.88;23.58;;;2.50;80.70;;;;;;5072745;28;20042;-33
2022/12/04 00:55:32;;;;;;;50.63;22.05;;;2.40;81.40;;;;;;5072830;28;20063;-34
2022/12/04 00:57:58;;;;;;;43.22;20.83;;;2.40;81.00;;;;;;5054457;28;20472;-35
2022/12/04 01:00:23;;;;;;;46.47;21.20;;;2.40;81.20;;;;;;5072416;28;20380;-34
2022/12/04 01:02:49;;;;;;;40.38;20.60;;;2.40;81.10;;;;;;5072340;28;20097;-34
2022/12/04 01:05:15;;;;;;;45.95;21.52;;;2.40;81.20;;;;;;5072155;28;20073;-33
2022/12/04 01:07:40;;;;;;;43.17;20.35;;;2.40;81.20;;;;;;5072568;28;20108;-35
2022/12/04 01:10:07;;;;;;;47.25;21.95;;;2.40;81.20;;;;;;5072471;28;20033;-33
2022/12/04 01:12:33;;;;;;;39.00;19.27;;;2.40;81.20;;;;;;5072130;28;20028;-34
2022/12/04 01:14:59;;;;;;;39.78;20.23;;;2.50;81.30;;;;;;5072116;28;20492;-33
2022/12/04 01:17:25;;;;;;;48.75;22.25;;;2.50;81.20;;;;;;5072310;28;20024;-33
2022/12/04 01:19:51;;;;;;;41.20;20.33;;;2.50;81.10;;;;;;5072101;28;20035;-34
2022/12/04 01:22:16;;;;;;;44.53;20.98;;;2.60;81.10;;;;;;5072090;28;20031;-33
2022/12/04 01:24:42;;;;;;;43.35;19.85;;;2.60;81.00;;;;;;5072052;28;20479;-33
2022/12/04 01:27:08;;;;;;;45.17;20.95;;;2.60;81.00;;;;;;5071946;28;20464;-33
2022/12/04 01:29:33;;;;;;;41.80;20.38;;;2.60;81.00;;;;;;5071902;28;20027;-33
2022/12/04 01:31:59;;;;;;;46.10;20.95;;;2.60;81.00;;;;;;5071996;28;20032;-33
2022/12/04 01:34:25;;;;;;;46.92;23.10;;;2.60;81.00;;;;;;5071812;28;20467;-33
2022/12/04 01:36:51;;;;;;;45.72;21.65;;;2.50;80.90;;;;;;5071866;28;20024;-34
2022/12/04 01:39:17;;;;;;;51.70;22.85;;;2.50;81.00;;;;;;5072033;28;20100;-34
2022/12/04 01:41:43;;;;;;;45.65;22.05;;;2.50;80.90;;;;;;5071585;28;20143;-33
2022/12/04 01:44:14;;;;;;;45.08;21.35;;;2.50;80.90;;;;;;5071720;28;20089;-37
2022/12/04 01:46:42;;;;;;;45.03;21.30;;;2.50;81.00;;;;;;5053594;28;20083;-34
2022/12/04 01:49:13;;;;;;;47.40;22.75;;;2.50;81.10;;;;;;5071625;28;20440;-34
2022/12/04 01:51:42;;;;;;;47.00;22.08;;;2.50;80.90;;;;;;5071583;28;20071;-33
2022/12/04 01:54:14;;;;;;;47.25;22.23;;;2.50;80.90;;;;;;5071775;28;20024;-33
2022/12/04 01:56:52;;;;;;;38.97;19.50;;;2.50;81.00;;;;;;5071887;28;20162;-41
2022/12/04 01:59:23;;;;;;;41.65;20.73;;;2.60;81.10;;;;;;5071678;28;20028;-34
2022/12/04 02:01:59;;;;;;;46.25;22.63;;;2.60;81.00;;;;;;5053247;28;20089;-33
2022/12/04 02:04:25;;;;;;;44.28;20.90;;;2.60;80.90;;;;;;5071752;28;20472;-34
2022/12/04 02:06:50;;;;;;;46.97;22.92;;;2.60;80.90;;;;;;5071368;28;20111;-33
2022/12/04 02:09:16;;;;;;;43.10;20.98;;;2.60;80.90;;;;;;5071390;28;20032;-34
2022/12/04 02:12:08;;;;;;;48.50;23.17;;;2.50;80.90;;;;;;5071548;28;20038;-34
2022/12/04 02:14:46;;;;;;;46.17;20.98;;;2.50;80.80;;;;;;5071370;28;20056;-34
2022/12/04 02:17:33;;;;;;;45.20;22.52;;;2.50;81.00;;;;;;5071559;28;20695;-33
2022/12/04 02:20:14;;;;;;;47.20;22.75;;;2.50;80.90;;;;;;5071170;28;20031;-35
2022/12/04 02:22:48;;;;;;;45.63;21.73;;;2.50;80.90;;;;;;5071241;28;20017;-43
2022/12/04 02:25:42;;;;;;;46.72;21.70;;;2.50;80.90;;;;;;5071263;28;20025;-34
2022/12/04 02:28:18;;;;;;;40.85;20.85;;;2.50;81.00;;;;;;5071205;28;20021;-34
2022/12/04 02:30:44;;;;;;;50.20;23.13;;;2.50;81.20;;;;;;5071402;28;20025;-33
2022/12/04 02:33:18;;;;;;;47.17;21.77;;;2.50;81.20;;;;;;5071229;28;20048;-33
2022/12/04 02:36:21;;;;;;;47.05;21.88;;;2.60;81.10;;;;;;5071449;28;20051;-34
2022/12/04 02:38:57;;;;;;;41.40;20.05;;;2.60;81.00;;;;;;5055363;28;20035;-33
2022/12/04 02:41:30;;;;;;;47.35;22.52;;;2.60;80.90;;;;;;5071093;28;20035;-34
2022/12/04 02:44:04;;;;;;;42.50;21.17;;;2.60;80.80;;;;;;5071514;28;20025;-33
2022/12/04 02:46:33;;;;;;;;;;;2.60;80.90;;;;;;5071874;28;20027;-33
2022/12/04 02:49:02;;;;;;;44.33;20.73;;;2.60;81.00;;;;;;5071337;28;20360;-33
2022/12/04 02:51:34;;;;;;;41.55;19.83;;;2.60;81.00;;;;;;5070942;28;20033;-34
2022/12/04 02:54:06;;;;;;;47.65;21.30;;;2.60;81.60;;;;;;5070922;28;20029;-33
2022/12/04 02:56:39;;;;;;;41.72;20.75;;;2.60;81.00;;;;;;5071017;28;20040;-34
2022/12/04 02:59:13;;;;;;;52.25;24.85;;;2.70;81.10;;;;;;5070768;28;20024;-33
2022/12/04 03:01:43;;;;;;;46.55;22.52;;;2.70;80.80;;;;;;5070825;28;20024;-34
2022/12/04 03:04:17;;;;;;;44.45;20.52;;;2.60;80.90;;;;;;5070762;28;20020;-36
2022/12/04 03:06:47;;;;;;;46.55;22.70;;;2.60;81.00;;;;;;5071193;28;20472;-34
2022/12/04 03:09:16;;;;;;;43.13;20.92;;;2.60;80.80;;;;;;5070835;28;20052;-35
2022/12/04 03:11:48;;;;;;;45.95;21.88;;;2.60;80.90;;;;;;5070784;28;20384;-34
2022/12/04 03:14:24;;;;;;;40.50;19.55;;;2.60;81.00;;;;;;5073877;28;20044;-32
2022/12/04 03:16:56;;;;;;;42.95;19.88;;;2.70;81.00;;;;;;5074423;28;20024;-36
2022/12/04 03:19:26;;;;;;;40.70;20.13;;;2.70;80.90;;;;;;5074220;28;20028;-34
2022/12/04 03:21:59;;;;;;;43.78;20.65;;;2.70;80.90;;;;;;5074698;28;20031;-34
2022/12/04 03:25:02;;;;;;;43.50;21.60;;;2.60;80.80;;;;;;5073925;28;20024;-33
2022/12/04 03:27:39;;;;;;;39.47;19.38;;;2.60;80.90;;;;;;4972798;28;20054;-33
2022/12/04 03:30:23;;;;;;;39.03;20.17;;;2.60;80.90;;;;;;5061748;28;20416;-33
2022/12/04 03:32:57;;;;;;;;;;;2.70;81.00;;;;;;5074792;28;20035;-33
2022/12/04 03:35:25;;;;;;;42.58;21.55;;;2.70;80.90;;;;;;5074098;28;19912;-34
2022/12/04 03:38:06;;;;;;;38.72;19.73;;;2.60;80.80;;;;;;5056112;28;20024;-34
2022/12/04 03:40:40;;;;;;;40.10;19.50;;;2.60;80.90;;;;;;5074095;28;20543;-34
2022/12/04 03:43:13;;;;;;;37.10;18.30;;;2.60;80.90;;;;;;5074212;28;20491;-33
2022/12/04 03:45:43;;;;;;;;;;;2.60;81.10;;;;;;5074472;28;20025;-34
2022/12/04 03:48:20;;;;;;;40.28;19.67;;;2.70;81.20;;;;;;5073655;28;19927;-34
2022/12/04 03:51:01;;;;;;;42.60;20.23;;;2.70;81.10;;;;;;5073637;28;20020;-33
2022/12/04 03:53:31;;;;;;;45.33;21.05;;;2.60;80.90;;;;;;5073486;28;20035;-33
2022/12/04 03:56:20;;;;;;;44.10;20.38;;;2.70;81.10;;;;;;5073411;28;20035;-33
2022/12/04 03:58:57;;;;;;;39.42;20.60;;;2.70;81.10;;;;;;5073458;28;20035;-32
2022/12/04 04:01:28;;;;;;;41.55;19.20;;;2.60;80.90;;;;;;5073441;28;20059;-32
2022/12/04 04:03:57;;;;;;;38.63;18.08;;;2.70;81.10;;;;;;5073347;28;20020;-33
2022/12/04 04:06:49;;;;;;;41.42;19.30;;;2.70;81.40;;;;;;5073422;28;20021;-34
2022/12/04 04:09:20;;;;;;;39.63;19.15;;;2.70;81.30;;;;;;5062600;28;20456;-33
2022/12/04 04:11:54;;;;;;;41.60;19.67;;;2.60;81.20;;;;;;5073204;28;20025;-33
2022/12/04 04:25:43;;;;;;;41.75;19.45;;;2.70;81.10;;;;;;5073296;28;20067;-34
2022/12/04 04:28:34;;;;;;;45.72;20.65;;;2.70;81.10;;;;;;5072961;28;20024;-34
2022/12/04 04:31:05;;;;;;;43.05;20.10;;;2.80;81.10;;;;;;5072936;28;20020;-34
2022/12/04 04:33:35;;;;;;;39.70;19.02;;;2.70;81.10;;;;;;5072886;28;20380;-34
2022/12/04 04:36:20;;;;;;;42.10;21.33;;;2.70;81.10;;;;;;5072949;28;20099;-33
2022/12/04 04:39:14;;;;;;;40.92;19.40;;;2.70;81.00;;;;;;5040976;28;20047;-34
2022/12/04 04:41:56;;;;;;;38.53;19.23;;;2.70;81.20;;;;;;5072626;28;20039;-33
2022/12/04 04:44:36;;;;;;;37.53;17.70;;;2.70;81.30;;;;;;5072710;28;20549;-34
2022/12/04 04:47:06;;;;;;;39.80;20.23;;;2.70;81.20;;;;;;5054668;28;20024;-33
2022/12/04 04:49:34;;;;;;;41.85;21.52;;;2.80;81.00;;;;;;5072536;28;20292;-33
2022/12/04 04:52:02;;;;;;;47.72;20.80;;;2.70;81.00;;;;;;5072404;28;20059;-33
2022/12/04 04:54:30;;;;;;;40.30;20.23;;;2.70;81.10;;;;;;5072367;28;20020;-33
2022/12/04 04:56:55;;;;;;;44.28;20.60;;;2.70;81.20;;;;;;5072400;28;20056;-34
2022/12/04 04:59:21;;;;;;;40.50;18.85;;;2.70;81.20;;;;;;5072307;28;20090;-34
2022/12/04 05:01:47;;;;;;;41.67;20.48;;;2.70;81.20;;;;;;5072165;28;20107;-33
2022/12/04 05:04:13;;;;;;;44.00;21.38;;;2.70;81.10;;;;;;5071972;28;20035;-34
2022/12/04 05:06:38;;;;;;;41.05;19.58;;;2.60;81.10;;;;;;5072088;28;20091;-33
2022/12/04 05:09:04;;;;;;;47.47;23.55;;;2.60;81.20;;;;;;5072541;28;20044;-33
2022/12/04 05:11:30;;;;;;;47.20;23.67;;;2.60;81.30;;;;;;5072069;28;20025;-33
2022/12/04 05:13:55;;;;;;;45.50;22.63;;;2.60;81.10;;;;;;5071734;28;20086;-34
2022/12/04 05:16:22;;;;;;;45.92;21.45;;;2.60;81.20;;;;;;5072311;28;20536;-34
2022/12/04 05:21:33;;;;;;;39.13;19.80;;;2.60;81.30;;;;;;5071843;28;20117;-34
2022/12/04 05:23:58;;;;;;;41.72;20.73;;;2.60;81.30;;;;;;5071840;28;20126;-34
2022/12/04 05:26:24;;;;;;;46.00;22.65;;;2.50;81.30;;;;;;5072303;28;20024;-34
2022/12/04 05:28:50;;;;;;;46.00;22.13;;;2.50;81.20;;;;;;5072144;28;20052;-36
2022/12/04 05:31:16;;;;;;;46.08;22.10;;;2.50;81.30;;;;;;5071956;28;20033;-33
2022/12/04 05:33:42;;;;;;;43.97;20.20;;;2.50;81.40;;;;;;5071914;28;20032;-34
2022/12/04 05:36:09;;;;;;;40.45;20.70;;;2.50;81.30;;;;;;5071264;28;20131;-33
2022/12/04 05:38:36;;;;;;;38.42;18.38;;;2.60;81.40;;;;;;5071871;28;20556;-33
2022/12/04 05:41:04;;;;;;;36.75;17.42;;;2.60;81.60;;;;;;5071703;28;20123;-34
2022/12/04 05:43:30;;;;;;;43.15;20.42;;;2.70;81.70;;;;;;5072006;28;20392;-33
2022/12/04 05:46:06;;;;;;;49.47;23.05;;;2.70;81.50;;;;;;5071754;28;20035;-33
2022/12/04 05:48:34;;;;;;;42.03;20.80;;;2.70;81.40;;;;;;5071718;28;20036;-34
2022/12/04 05:51:03;;;;;;;46.33;21.08;;;2.60;81.50;;;;;;5071532;28;20021;-33
2022/12/04 05:53:29;;;;;;;40.92;20.55;;;2.60;81.60;;;;;;5071527;28;20033;-34
2022/12/04 05:55:59;;;;;;;39.35;19.10;;;2.60;81.70;;;;;;5071478;28;20484;-32
2022/12/04 05:58:26;;;;;;;36.05;18.75;;;2.60;81.70;;;;;;5071551;28;20487;-33
2022/12/04 06:00:51;;;;;;;42.33;19.67;;;2.60;81.70;;;;;;5071436;28;20037;-34
2022/12/04 06:03:17;;;;;;;44.03;20.55;;;2.60;81.70;;;;;;5071398;28;20086;-33
2022/12/04 06:05:43;;;;;;;37.13;18.85;;;2.60;81.60;;;;;;5071373;28;20388;-34
2022/12/04 06:08:08;;;;;;;37.78;19.40;;;2.70;81.70;;;;;;5071383;28;20027;-34
2022/12/04 06:10:34;;;;;;;36.67;18.15;;;2.60;81.50;;;;;;5071356;28;20050;-33
2022/12/04 06:13:00;;;;;;;37.80;17.95;;;2.60;81.60;;;;;;5071305;28;20099;-35
2022/12/04 06:15:25;;;;;;;36.25;17.73;;;2.60;81.50;;;;;;5071171;28;20496;-33
2022/12/04 06:17:51;;;;;;;39.45;18.45;;;2.70;81.60;;;;;;5071325;28;20468;-33
2022/12/04 06:20:16;;;;;;;44.90;22.27;;;2.70;81.90;;;;;;5071247;28;20035;-33
2022/12/04 06:22:42;;;;;;;44.33;21.02;;;2.70;81.70;;;;;;5071291;28;20464;-34
2022/12/04 06:25:08;;;;;;;42.20;20.63;;;2.60;81.60;;;;;;5071308;28;20017;-33
2022/12/04 06:27:34;;;;;;;37.80;19.60;;;2.60;81.50;;;;;;5071290;28;20108;-33
2022/12/04 06:29:59;;;;;;;39.90;19.48;;;2.60;81.70;;;;;;5071047;28;20064;-33
2022/12/04 06:32:25;;;;;;;39.90;19.55;;;2.60;81.70;;;;;;5071154;28;20491;-33
2022/12/04 06:34:52;;;;;;;39.95;19.58;;;2.60;81.70;;;;;;5071200;28;20047;-34
2022/12/04 06:37:19;;;;;;;39.45;19.42;;;2.60;81.60;;;;;;5053029;28;20064;-33
2022/12/04 06:39:45;;;;;;;40.35;19.27;;;2.60;81.70;;;;;;5071082;28;20048;-33
2022/12/04 06:42:11;;;;;;;38.22;18.98;;;2.60;81.70;;;;;;5071047;28;20021;-34
2022/12/04 06:44:36;;;;;;;38.95;19.25;;;2.60;81.70;;;;;;5071100;28;20024;-33
2022/12/04 06:47:02;;;;;;;36.55;18.08;;;2.60;81.60;;;;;;5071103;28;20526;-33
2022/12/04 06:49:27;;;;;;;37.70;19.23;;;2.60;81.60;;;;;;5074915;28;20446;-33
2022/12/04 06:51:53;;;;;;;36.92;19.17;;;2.70;81.70;;;;;;5056744;28;20025;-38
2022/12/04 06:54:19;;;;;;;35.72;18.13;;;2.60;81.60;;;;;;5074523;28;20108;-33
2022/12/04 06:56:44;;;;;;;32.10;16.10;;;2.70;81.70;;;;;;5074748;28;20028;-36
2022/12/04 06:59:10;;;;;;;37.80;19.15;;;2.70;81.60;;;;;;5074930;28;20048;-34
2022/12/04 07:01:35;;;;;;;34.35;16.52;;;2.70;81.60;;;;;;5074597;28;20029;-34
2022/12/04 07:04:02;;;;;;;36.47;18.73;;;2.70;81.90;;;;;;5074504;28;20503;-34
2022/12/04 07:06:31;;;;;;;40.55;20.10;;;2.70;81.70;;;;;;5074608;28;20029;-33
2022/12/04 07:09:18;;;;;;;38.67;18.95;;;2.70;81.70;;;;;;5074731;28;20107;-33
2022/12/04 07:11:44;;;;;;;45.38;20.70;;;2.60;81.70;;;;;;5055891;28;20175;-33
2022/12/04 07:14:11;;;;;;;41.20;18.88;;;2.70;81.70;;;;;;5074516;28;20071;-33
2022/12/04 07:16:38;;;;;;;41.28;18.23;;;2.60;81.70;;;;;;5074462;28;20024;-33
2022/12/04 07:19:11;;;;;;;34.63;16.73;;;2.70;81.70;;;;;;5074320;28;20032;-32
2022/12/04 07:21:36;;;;;;;37.08;18.00;;;2.70;81.80;;;;;;5074284;28;20064;-34
2022/12/04 07:24:02;;;;;;;37.85;18.52;;;2.70;81.80;;;;;;5074281;28;20068;-33
2022/12/04 07:26:29;;;;;;;38.35;18.27;;;2.70;81.50;;;;;;5074615;28;20016;-33
2022/12/04 07:28:56;;;;;;;35.28;17.27;;;2.70;81.50;;;;;;5074225;28;20060;-33
2022/12/04 07:31:24;;;;;;;31.40;15.32;;;2.70;81.70;;;;;;5074163;28;20040;-33
2022/12/04 07:33:50;;;;;;;34.40;17.23;;;2.70;81.80;;;;;;5074169;28;20060;-33
2022/12/04 07:36:18;;;;;;;37.80;18.98;;;2.70;81.90;;;;;;5074427;28;20047;-33
2022/12/04 07:38:44;;;;;;;33.75;17.40;;;2.70;81.80;;;;;;5074159;28;20032;-33
2022/12/04 07:41:11;;;;;;;31.15;15.05;;;2.70;81.90;;;;;;5073939;28;20035;-33
2022/12/04 07:43:37;;;;;;;35.95;16.98;;;2.80;82.00;;;;;;5074148;28;20033;-34
2022/12/04 07:46:18;;;;;;;32.53;17.40;;;2.80;81.90;;;;;;5073935;28;20083;-34
2022/12/04 07:48:44;;;;;;;33.53;16.83;;;2.80;81.90;;;;;;5073849;28;20037;-41
2022/12/04 07:51:15;;;;;;;33.42;17.17;;;2.80;81.80;;;;;;5073748;28;20032;-32
2022/12/04 07:53:42;;;;;;;32.85;15.48;;;2.80;81.80;;;;;;5073795;28;20048;-32
2022/12/04 07:56:09;;;;;;;38.28;17.13;;;2.80;81.80;;;;;;5073615;28;20373;-32
2022/12/04 07:58:34;;;;;;;42.00;19.08;;;2.80;81.70;;;;;;5073249;28;20024;-33
2022/12/04 08:01:06;;;;;;;38.92;19.30;;;2.80;81.70;;;;;;5073392;28;20029;-33
2022/12/04 08:03:32;;;;;;;35.15;17.60;;;2.80;81.70;;;;;;5073951;28;20033;-32
2022/12/04 08:06:05;;;;;;;33.30;15.27;;;2.80;81.80;;;;;;5073562;28;20587;-33
2022/12/04 08:08:31;;;;;;;33.30;16.65;;;2.80;82.10;;;;;;5073917;28;20085;-34
2022/12/04 08:10:58;;;;;;;37.88;18.08;;;2.80;82.10;;;;;;5073470;28;20067;-34
2022/12/04 08:13:24;;;;;;;35.33;17.27;;;2.80;82.00;;;;;;5073406;28;20039;-35
2022/12/04 08:15:50;;;;;;;33.20;16.98;;;2.80;82.00;;;;;;5073268;28;20423;-33
2022/12/04 08:18:16;;;;;;;34.97;16.77;;;2.80;82.00;;;;;;5073215;28;20340;-34
2022/12/04 08:20:43;;;;;;;35.38;16.38;;;2.80;82.00;;;;;;5073219;28;20040;-33
2022/12/04 08:23:09;;;;;;;35.78;17.73;;;2.90;82.20;;;;;;5055172;28;20116;-33
2022/12/04 08:25:39;;;;;;;33.60;16.58;;;2.80;82.10;;;;;;5073029;28;20432;-34
2022/12/04 08:28:05;;;;;;;33.80;16.58;;;2.90;82.10;;;;;;5073060;28;20017;-34
2022/12/04 08:30:33;;;;;;;34.13;15.85;;;2.80;82.10;;;;;;5073285;28;20052;-34
2022/12/04 08:32:58;;;;;;;27.85;12.85;;;2.80;82.10;;;;;;5072876;28;20439;-34
2022/12/04 08:35:24;;;;;;;30.30;15.52;;;2.80;82.70;;;;;;5072821;28;20028;-33
2022/12/04 08:37:49;;;;;;;32.58;14.93;;;2.90;83.20;;;;;;5072842;28;20439;-32
2022/12/04 08:40:16;;;;;;;33.30;15.10;;;2.90;83.00;;;;;;5054659;28;20086;-33
2022/12/04 08:42:42;;;;;;;35.30;16.38;;;2.90;82.90;;;;;;5072919;28;20423;-33
2022/12/04 08:45:08;;;;;;;38.13;18.38;;;2.90;82.70;;;;;;5072557;28;20029;-33
2022/12/04 08:47:33;;;;;;;32.35;16.33;;;2.90;82.60;;;;;;5072431;28;20032;-33
2022/12/04 08:49:59;;;;;;;30.00;15.85;;;2.90;82.60;;;;;;5072492;28;20479;-33
2022/12/04 08:52:25;;;;;;;33.47;16.67;;;2.80;83.10;;;;;;5072526;28;20433;-33
2022/12/04 08:54:50;;;;;;;29.15;14.95;;;2.90;83.10;;;;;;5072419;28;20029;-33
2022/12/04 08:57:16;;;;;;;32.17;15.30;;;2.90;83.00;;;;;;5072363;28;20491;-33
2022/12/04 08:59:41;;;;;;;34.63;16.15;;;2.80;82.80;;;;;;5072198;28;20029;-34
2022/12/04 09:02:09;;;;;;;32.70;15.85;;;2.80;83.40;;;;;;5072264;28;20031;-33
2022/12/04 09:04:35;;;;;;;38.97;17.75;;;2.80;83.50;;;;;;5072186;28;20074;-33
2022/12/04 09:07:01;;;;;;;37.55;17.35;;;2.80;83.30;;;;;;5072129;28;20416;-32
2022/12/04 09:09:26;;;;;;;32.72;15.75;;;2.80;83.30;;;;;;5071961;28;20476;-33
2022/12/04 09:11:52;;;;;;;32.13;15.27;;;2.80;83.40;;;;;;5071596;28;20406;-33
2022/12/04 09:14:24;;;;;;;31.45;15.23;;;2.90;83.30;;;;;;5071992;28;20036;-32
2022/12/04 09:16:50;;;;;;;29.58;14.65;;;2.90;83.20;;;;;;5071988;28;20025;-33
2022/12/04 09:19:16;;;;;;;33.42;15.90;;;2.90;83.20;;;;;;5071930;28;20048;-33
2022/12/04 09:21:42;;;;;;;31.38;15.52;;;2.90;83.10;;;;;;5071836;28;20075;-32
2022/12/04 09:24:07;;;;;;;32.03;14.73;;;2.90;83.00;;;;;;5071871;28;20480;-32
2022/12/04 09:26:33;;;;;;;30.58;15.00;;;2.90;83.20;;;;;;5053783;28;20112;-32
2022/12/04 09:29:01;;;;;;;34.38;15.25;;;2.80;83.70;;;;;;5071817;28;20028;-33
2022/12/04 09:31:27;;;;;;;29.88;14.40;;;2.90;83.60;;;;;;5071852;28;20103;-33
2022/12/04 09:33:53;;;;;;;32.38;14.80;;;2.90;83.40;;;;;;5071631;28;20465;-33
2022/12/04 09:36:19;;;;;;;30.35;14.27;;;2.90;83.20;;;;;;5071849;28;20515;-34
2022/12/04 09:38:47;;;;;;;25.00;12.77;;;2.90;83.50;;;;;;5071843;28;20028;-33
2022/12/04 09:41:46;;;;;;;27.67;12.98;;;2.90;83.60;;;;;;5053676;28;20432;-33
2022/12/04 09:44:32;;;;;;;24.45;12.85;;;2.90;83.60;;;;;;5071952;28;20441;-33
2022/12/04 09:47:24;;;;;;;23.05;11.40;;;2.90;83.80;;;;;;5071696;28;20082;-33
2022/12/04 09:49:55;;;;;;;25.60;12.07;;;2.90;84.10;;;;;;5071699;28;20476;-33
2022/12/04 09:52:34;;;;;;;22.27;11.25;;;2.90;84.20;;;;;;5071598;28;20021;-34
2022/12/04 09:55:02;;;;;;;19.42;10.98;;;2.90;84.20;;;;;;5071579;28;20035;-33
2022/12/04 09:57:42;;;;;;;23.02;11.95;;;3.00;84.10;;;;;;5071617;28;20056;-34
2022/12/04 10:00:13;;;;;;;22.25;11.43;;;3.00;84.00;;;;;;5071335;28;20502;-35
2022/12/04 10:02:41;;;;;;;20.23;10.75;;;3.00;83.60;;;;;;5071583;28;20028;-33
2022/12/04 10:05:34;;;;;;;20.45;11.10;;;3.00;84.10;;;;;;5071523;28;20017;-33
2022/12/04 10:08:19;;;;;;;18.00;9.40;;;3.00;84.70;;;;;;5070702;28;20051;-32
2022/12/04 10:11:15;;;;;;;17.02;8.60;;;3.00;84.90;;;;;;5071675;28;20035;-32
2022/12/04 10:14:08;;;;;;;15.23;8.43;;;3.00;85.10;;;;;;5071387;28;20365;-44
2022/12/04 10:17:09;;;;;;;19.92;9.80;;;3.00;85.20;;;;;;5071347;28;20028;-33
2022/12/04 10:20:15;;;;;;;19.10;10.05;;;3.10;84.70;;;;;;5071487;28;20036;-33
2022/12/04 10:23:02;;;;;;;21.00;9.77;;;3.10;84.70;;;;;;5074238;28;20071;-33
2022/12/04 10:25:29;;;;;;;17.25;9.55;;;3.10;84.80;;;;;;5075725;28;20024;-33
2022/12/04 10:27:56;;;;;;;16.90;8.98;;;3.10;84.50;;;;;;5075489;28;20357;-33
2022/12/04 10:30:31;;;;;;;15.63;8.50;;;3.20;84.50;;;;;;5075234;28;20032;-33
2022/12/04 10:33:09;;;;;;;17.17;9.27;;;3.20;84.70;;;;;;5075087;28;20090;-35
2022/12/04 10:35:38;;;;;;;16.65;8.90;;;3.20;85.60;;;;;;5075311;28;20036;-36
2022/12/04 10:38:11;;;;;;;15.52;8.95;;;3.20;85.90;;;;;;5075007;28;20024;-34
2022/12/04 10:40:43;;;;;;;16.00;8.63;;;3.20;85.80;;;;;;5075247;28;20036;-34
2022/12/04 10:43:17;;;;;;;16.17;9.02;;;3.20;85.90;;;;;;5075074;28;20025;-33
2022/12/04 10:45:43;;;;;;;15.77;8.32;;;3.30;86.10;;;;;;5074930;28;20028;-33
2022/12/04 10:48:23;;;;;;;16.92;8.95;;;3.20;86.10;;;;;;5075082;28;20380;-33
2022/12/04 10:50:48;;;;;;;16.05;9.43;;;3.20;86.20;;;;;;5075192;28;20108;-33
2022/12/04 10:53:15;;;;;;;17.45;9.43;;;3.20;85.70;;;;;;5074809;28;20067;-34
2022/12/04 10:55:41;;;;;;;17.30;9.88;;;3.20;85.80;;;;;;5074868;28;20534;-34
2022/12/04 10:58:25;;;;;;;14.48;8.23;;;3.20;85.90;;;;;;5075044;28;20029;-33
2022/12/04 11:01:20;;;;;;;17.55;8.98;;;3.30;85.90;;;;;;5074755;28;20024;-33
2022/12/04 11:03:52;;;;;;;16.98;9.18;;;3.30;85.70;;;;;;5072179;28;20089;-34
2022/12/04 11:06:25;;;;;;;14.20;8.13;;;3.40;85.40;;;;;;5074720;28;20029;-33
2022/12/04 11:08:52;;;;;;;14.52;9.15;;;3.40;85.50;;;;;;5074547;28;20020;-34
2022/12/04 11:11:24;;;;;;;13.98;8.27;;;3.40;85.60;;;;;;5074563;28;20021;-34
2022/12/04 11:14:19;;;;;;;13.60;8.03;;;3.40;85.90;;;;;;5074714;28;20036;-33
2022/12/04 11:16:48;;;;;;;13.93;8.05;;;3.40;86.40;;;;;;5073832;28;20076;-34
2022/12/04 11:19:28;;;;;;;17.52;8.88;;;3.50;86.10;;;;;;5074394;28;20044;-34
2022/12/04 11:21:57;;;;;;;15.73;8.75;;;3.50;86.10;;;;;;5074554;28;20463;-33
2022/12/04 11:24:34;;;;;;;13.05;8.35;;;3.40;86.60;;;;;;5074209;28;20123;-44
2022/12/04 11:27:06;;;;;;;16.38;9.30;;;3.40;86.20;;;;;;5056277;28;20032;-33
2022/12/04 11:29:37;;;;;;;15.07;8.38;;;3.50;85.80;;;;;;5074157;28;20082;-33
2022/12/04 11:32:04;;;;;;;15.60;8.50;;;3.40;86.00;;;;;;5073975;28;20391;-33
2022/12/04 11:34:37;;;;;;;15.02;8.65;;;3.50;86.10;;;;;;5073456;28;20056;-34
2022/12/04 11:37:04;;;;;;;13.70;8.05;;;3.50;86.00;;;;;;5074370;28;20335;-34
2022/12/04 11:39:35;;;;;;;15.93;8.68;;;3.50;86.10;;;;;;5074028;28;20055;-33
2022/12/04 11:42:18;;;;;;;16.20;9.05;;;3.50;86.30;;;;;;5073835;28;20120;-34
2022/12/04 11:45:20;;;;;;;14.95;8.95;;;3.50;85.80;;;;;;5073856;28;20369;-34
2022/12/04 11:48:11;;;;;;;15.27;8.18;;;3.60;85.90;;;;;;5073905;28;20036;-34
2022/12/04 11:51:03;;;;;;;17.55;8.38;;;3.60;85.70;;;;;;5073739;28;20028;-35
2022/12/04 11:53:54;;;;;;;14.20;8.07;;;3.60;85.30;;;;;;5042638;28;20380;-40
2022/12/04 11:56:31;;;;;;;15.65;8.98;;;3.60;85.20;;;;;;5073892;28;20032;-33
2022/12/04 11:59:18;;;;;;;13.90;7.90;;;3.60;85.10;;;;;;5073380;28;20040;-34
2022/12/04 12:01:53;;;;;;;13.77;7.55;;;3.60;84.90;;;;;;5073154;28;20040;-33
2022/12/04 12:04:18;;;;;;;12.15;7.03;;;3.60;85.10;;;;;;5073401;28;20025;-33
2022/12/04 12:06:46;;;;;;;13.13;7.32;;;3.60;86.00;;;;;;5073513;28;20069;-40
2022/12/04 12:09:28;;;;;;;12.68;7.57;;;3.60;86.10;;;;;;5073422;28;20332;-34
2022/12/04 12:12:04;;;;;;;11.90;7.20;;;3.60;86.00;;;;;;5073324;28;20592;-35
2022/12/04 12:15:16;;;;;;;14.25;7.53;;;3.60;86.40;;;;;;5073078;28;20045;-33
2022/12/04 12:18:14;;;;;;;12.15;7.25;;;3.70;86.80;;;;;;5073059;28;20119;-33
2022/12/04 12:20:49;;;;;;;15.13;8.63;;;3.70;86.90;;;;;;5073030;28;20051;-33
2022/12/04 12:23:41;;;;;;;13.35;7.53;;;3.70;86.50;;;;;;5073000;28;20029;-35
2022/12/04 12:26:15;;;;;;;12.38;7.63;;;3.70;86.60;;;;;;5073109;28;20055;-33
2022/12/04 12:28:58;;;;;;;14.23;8.48;;;3.70;86.90;;;;;;5073269;28;20695;-33
2022/12/04 12:31:51;;;;;;;15.65;7.70;;;3.70;86.60;;;;;;5072857;28;20037;-33
2022/12/04 12:34:31;;;;;;;13.35;7.95;;;3.70;86.50;;;;;;5073016;28;20035;-33
2022/12/04 12:37:04;;;;;;;13.60;8.05;;;3.70;87.40;;;;;;5072909;28;20368;-33
2022/12/04 12:39:39;;;;;;;13.25;8.02;;;3.80;87.80;;;;;;5072873;28;20044;-33
2022/12/04 12:42:11;;;;;;;15.52;8.48;;;3.80;87.60;;;;;;5072692;28;20032;-33
2022/12/04 12:45:00;;;;;;;14.25;8.55;;;3.80;87.30;;;;;;5072918;28;20029;-34
2022/12/04 12:47:30;;;;;;;11.77;7.03;;;3.80;86.90;;;;;;5072834;28;20114;-33
2022/12/04 12:50:02;;;;;;;14.85;7.50;;;3.80;87.00;;;;;;5072584;28;20032;-34
2022/12/04 12:52:42;;;;;;;15.77;8.25;;;3.80;87.40;;;;;;5054764;28;20025;-35
2022/12/04 12:55:34;;;;;;;13.00;7.45;;;3.80;87.20;;;;;;5073245;28;20479;-35
2022/12/04 12:58:16;;;;;;;12.20;7.60;;;3.80;86.80;;;;;;5072705;28;20025;-35
2022/12/04 13:01:06;;;;;;;15.40;8.23;;;3.80;86.90;;;;;;5072580;28;20020;-35
2022/12/04 13:03:44;;;;;;;11.48;7.32;;;3.80;86.80;;;;;;5072581;28;20031;-33
2022/12/04 13:06:17;;;;;;;9.60;6.22;;;3.90;87.00;;;;;;5072332;28;20060;-35
2022/12/04 13:09:15;;;;;;;9.73;6.15;;;3.90;87.50;;;;;;5072614;28;20035;-35
2022/12/04 13:11:45;;;;;;;10.70;6.78;;;3.90;88.30;;;;;;5072496;28;20025;-35
2022/12/04 13:14:12;;;;;;;13.50;8.25;;;3.90;88.60;;;;;;5072268;28;20111;-36
2022/12/04 13:16:44;;;;;;;11.23;7.30;;;3.90;88.50;;;;;;5072183;28;20037;-36
2022/12/04 13:19:22;;;;;;;13.23;8.23;;;3.90;88.30;;;;;;5072221;28;20499;-35